sensor_id;sensor_type;location;lat;lon;timestamp;P1;durP1;ratioP1;P2;durP2;ratioP2
21000;SDS011;10658;50.920;12.238;2024-03-02T00:01:11;21.60;;;13.10;;
21000;SDS011;10658;50.920;12.238;2024-03-02T00:05:16;20.77;;;11.38;;
21000;SDS011;10658;50.920;12.238;2024-03-02T00:09:21;18.67;;;9.95;;
21000;SDS011;10658;50.920;12.238;2024-03-02T00:13:22;19.75;;;10.80;;
21000;SDS011;10658;50.920;12.238;2024-03-02T00:17:24;21.88;;;12.40;;
21000;SDS011;10658;50.920;12.238;2024-03-02T00:21:29;27.20;;;16.45;;
21000;SDS011;10658;50.920;12.238;2024-03-02T00:25:38;23.80;;;15.02;;
21000;SDS011;10658;50.920;12.238;2024-03-02T00:29:46;24.85;;;13.40;;
21000;SDS011;10658;50.920;12.238;2024-03-02T00:33:47;19.83;;;11.25;;
21000;SDS011;10658;50.920;12.238;2024-03-02T00:37:49;22.20;;;10.50;;
21000;SDS011;10658;50.920;12.238;2024-03-02T00:41:50;17.38;;;9.38;;
21000;SDS011;10658;50.920;12.238;2024-03-02T00:45:50;16.67;;;9.52;;
21000;SDS011;10658;50.920;12.238;2024-03-02T00:49:51;15.13;;;9.02;;
21000;SDS011;10658;50.920;12.238;2024-03-02T00:53:52;16.02;;;8.73;;
21000;SDS011;10658;50.920;12.238;2024-03-02T00:57:57;17.98;;;9.32;;
21000;SDS011;10658;50.920;12.238;2024-03-02T01:01:58;16.08;;;9.85;;
21000;SDS011;10658;50.920;12.238;2024-03-02T01:05:59;15.32;;;8.40;;
21000;SDS011;10658;50.920;12.238;2024-03-02T01:10:00;11.95;;;8.10;;
21000;SDS011;10658;50.920;12.238;2024-03-02T01:14:01;16.17;;;8.55;;
21000;SDS011;10658;50.920;12.238;2024-03-02T01:18:02;14.95;;;8.25;;
21000;SDS011;10658;50.920;12.238;2024-03-02T01:22:03;13.40;;;7.90;;
21000;SDS011;10658;50.920;12.238;2024-03-02T01:26:03;15.23;;;8.07;;
21000;SDS011;10658;50.920;12.238;2024-03-02T01:30:05;13.82;;;8.70;;
21000;SDS011;10658;50.920;12.238;2024-03-02T01:34:06;14.13;;;7.60;;
21000;SDS011;10658;50.920;12.238;2024-03-02T01:38:07;14.32;;;8.10;;
21000;SDS011;10658;50.920;12.238;2024-03-02T01:42:08;14.25;;;8.50;;
21000;SDS011;10658;50.920;12.238;2024-03-02T01:46:10;11.95;;;7.45;;
21000;SDS011;10658;50.920;12.238;2024-03-02T01:50:11;12.77;;;6.95;;
21000;SDS011;10658;50.920;12.238;2024-03-02T01:54:13;12.20;;;7.80;;
21000;SDS011;10658;50.920;12.238;2024-03-02T01:58:14;15.30;;;8.07;;
21000;SDS011;10658;50.920;12.238;2024-03-02T02:02:14;11.70;;;7.07;;
21000;SDS011;10658;50.920;12.238;2024-03-02T02:06:15;11.70;;;7.15;;
21000;SDS011;10658;50.920;12.238;2024-03-02T02:10:16;11.45;;;7.45;;
21000;SDS011;10658;50.920;12.238;2024-03-02T02:14:17;20.05;;;11.15;;
21000;SDS011;10658;50.920;12.238;2024-03-02T02:18:18;27.45;;;13.90;;
21000;SDS011;10658;50.920;12.238;2024-03-02T02:22:19;23.17;;;14.05;;
21000;SDS011;10658;50.920;12.238;2024-03-02T02:26:20;26.77;;;14.60;;
21000;SDS011;10658;50.920;12.238;2024-03-02T02:34:25;28.75;;;13.77;;
21000;SDS011;10658;50.920;12.238;2024-03-02T02:38:26;24.92;;;15.02;;
21000;SDS011;10658;50.920;12.238;2024-03-02T02:42:27;31.38;;;16.23;;
21000;SDS011;10658;50.920;12.238;2024-03-02T02:46:28;30.80;;;15.70;;
21000;SDS011;10658;50.920;12.238;2024-03-02T02:50:28;36.17;;;17.48;;
21000;SDS011;10658;50.920;12.238;2024-03-02T02:54:29;31.83;;;17.25;;
21000;SDS011;10658;50.920;12.238;2024-03-02T02:58:30;26.55;;;13.63;;
21000;SDS011;10658;50.920;12.238;2024-03-02T03:02:31;26.13;;;13.60;;
21000;SDS011;10658;50.920;12.238;2024-03-02T03:06:32;24.25;;;14.45;;
21000;SDS011;10658;50.920;12.238;2024-03-02T03:10:33;28.65;;;14.15;;
21000;SDS011;10658;50.920;12.238;2024-03-02T03:14:33;33.63;;;15.23;;
21000;SDS011;10658;50.920;12.238;2024-03-02T03:18:34;23.50;;;12.38;;
21000;SDS011;10658;50.920;12.238;2024-03-02T03:22:35;25.42;;;12.43;;
21000;SDS011;10658;50.920;12.238;2024-03-02T03:26:37;33.50;;;13.70;;
21000;SDS011;10658;50.920;12.238;2024-03-02T03:30:38;27.10;;;13.65;;
21000;SDS011;10658;50.920;12.238;2024-03-02T03:34:39;21.65;;;12.27;;
21000;SDS011;10658;50.920;12.238;2024-03-02T03:38:40;23.80;;;13.73;;
21000;SDS011;10658;50.920;12.238;2024-03-02T03:42:41;21.65;;;11.57;;
21000;SDS011;10658;50.920;12.238;2024-03-02T03:46:42;26.27;;;12.98;;
21000;SDS011;10658;50.920;12.238;2024-03-02T03:50:42;26.63;;;12.38;;
21000;SDS011;10658;50.920;12.238;2024-03-02T03:54:43;22.63;;;11.95;;
21000;SDS011;10658;50.920;12.238;2024-03-02T03:58:45;24.08;;;12.02;;
21000;SDS011;10658;50.920;12.238;2024-03-02T04:02:45;21.73;;;10.88;;
21000;SDS011;10658;50.920;12.238;2024-03-02T04:06:46;21.58;;;11.10;;
21000;SDS011;10658;50.920;12.238;2024-03-02T04:10:47;18.63;;;11.23;;
21000;SDS011;10658;50.920;12.238;2024-03-02T04:14:48;27.83;;;13.30;;
21000;SDS011;10658;50.920;12.238;2024-03-02T04:18:49;20.85;;;10.93;;
21000;SDS011;10658;50.920;12.238;2024-03-02T04:22:50;21.65;;;11.57;;
21000;SDS011;10658;50.920;12.238;2024-03-02T04:26:51;20.02;;;10.20;;
21000;SDS011;10658;50.920;12.238;2024-03-02T04:30:51;21.52;;;12.10;;
21000;SDS011;10658;50.920;12.238;2024-03-02T04:34:52;22.38;;;11.60;;
21000;SDS011;10658;50.920;12.238;2024-03-02T04:38:54;20.77;;;10.82;;
21000;SDS011;10658;50.920;12.238;2024-03-02T04:42:55;25.55;;;12.27;;
21000;SDS011;10658;50.920;12.238;2024-03-02T04:46:56;22.98;;;12.15;;
21000;SDS011;10658;50.920;12.238;2024-03-02T04:50:57;25.20;;;13.13;;
21000;SDS011;10658;50.920;12.238;2024-03-02T04:54:58;23.50;;;11.90;;
21000;SDS011;10658;50.920;12.238;2024-03-02T04:59:18;28.35;;;13.55;;
21000;SDS011;10658;50.920;12.238;2024-03-02T05:03:20;28.48;;;12.60;;
21000;SDS011;10658;50.920;12.238;2024-03-02T05:07:20;22.48;;;12.95;;
21000;SDS011;10658;50.920;12.238;2024-03-02T05:11:22;21.00;;;13.25;;
21000;SDS011;10658;50.920;12.238;2024-03-02T05:15:51;24.73;;;11.50;;
21000;SDS011;10658;50.920;12.238;2024-03-02T05:19:52;21.00;;;10.75;;
21000;SDS011;10658;50.920;12.238;2024-03-02T05:23:53;20.80;;;11.10;;
21000;SDS011;10658;50.920;12.238;2024-03-02T05:27:54;22.38;;;10.55;;
21000;SDS011;10658;50.920;12.238;2024-03-02T05:31:54;23.38;;;11.38;;
21000;SDS011;10658;50.920;12.238;2024-03-02T05:35:55;19.40;;;11.88;;
21000;SDS011;10658;50.920;12.238;2024-03-02T05:39:56;19.77;;;10.23;;
21000;SDS011;10658;50.920;12.238;2024-03-02T05:43:57;16.77;;;10.25;;
21000;SDS011;10658;50.920;12.238;2024-03-02T05:47:58;19.67;;;11.60;;
21000;SDS011;10658;50.920;12.238;2024-03-02T05:51:58;22.55;;;12.00;;
21000;SDS011;10658;50.920;12.238;2024-03-02T05:55:59;19.08;;;11.20;;
21000;SDS011;10658;50.920;12.238;2024-03-02T06:00:00;20.85;;;12.13;;
21000;SDS011;10658;50.920;12.238;2024-03-02T06:04:01;27.58;;;14.13;;
21000;SDS011;10658;50.920;12.238;2024-03-02T06:08:02;27.30;;;14.05;;
21000;SDS011;10658;50.920;12.238;2024-03-02T06:12:03;26.00;;;12.90;;
21000;SDS011;10658;50.920;12.238;2024-03-02T06:16:04;27.13;;;14.55;;
21000;SDS011;10658;50.920;12.238;2024-03-02T06:20:05;25.23;;;12.57;;
21000;SDS011;10658;50.920;12.238;2024-03-02T06:24:08;24.77;;;13.52;;
21000;SDS011;10658;50.920;12.238;2024-03-02T06:28:09;25.92;;;14.38;;
21000;SDS011;10658;50.920;12.238;2024-03-02T06:32:10;24.60;;;13.98;;
21000;SDS011;10658;50.920;12.238;2024-03-02T06:36:11;29.25;;;14.63;;
21000;SDS011;10658;50.920;12.238;2024-03-02T06:40:12;26.92;;;14.27;;
21000;SDS011;10658;50.920;12.238;2024-03-02T06:44:13;29.00;;;15.20;;
21000;SDS011;10658;50.920;12.238;2024-03-02T06:48:13;32.92;;;17.77;;
21000;SDS011;10658;50.920;12.238;2024-03-02T06:52:18;40.55;;;24.75;;
21000;SDS011;10658;50.920;12.238;2024-03-02T06:56:20;25.98;;;15.13;;
21000;SDS011;10658;50.920;12.238;2024-03-02T07:00:21;25.88;;;14.88;;
21000;SDS011;10658;50.920;12.238;2024-03-02T07:04:22;29.63;;;14.27;;
21000;SDS011;10658;50.920;12.238;2024-03-02T07:08:22;29.40;;;15.27;;
21000;SDS011;10658;50.920;12.238;2024-03-02T07:12:23;29.13;;;15.77;;
21000;SDS011;10658;50.920;12.238;2024-03-02T07:16:24;28.73;;;15.82;;
21000;SDS011;10658;50.920;12.238;2024-03-02T07:20:25;36.55;;;18.75;;
21000;SDS011;10658;50.920;12.238;2024-03-02T07:24:25;33.58;;;18.98;;
21000;SDS011;10658;50.920;12.238;2024-03-02T07:28:26;31.20;;;18.10;;
21000;SDS011;10658;50.920;12.238;2024-03-02T07:32:27;30.90;;;16.98;;
21000;SDS011;10658;50.920;12.238;2024-03-02T07:36:28;29.83;;;15.20;;
21000;SDS011;10658;50.920;12.238;2024-03-02T07:40:29;24.98;;;14.38;;
21000;SDS011;10658;50.920;12.238;2024-03-02T07:44:30;29.00;;;16.45;;
21000;SDS011;10658;50.920;12.238;2024-03-02T07:48:30;30.45;;;15.90;;
21000;SDS011;10658;50.920;12.238;2024-03-02T07:52:32;26.92;;;15.40;;
21000;SDS011;10658;50.920;12.238;2024-03-02T07:56:34;24.27;;;14.18;;
21000;SDS011;10658;50.920;12.238;2024-03-02T08:00:35;32.42;;;16.05;;
21000;SDS011;10658;50.920;12.238;2024-03-02T08:04:35;29.50;;;14.13;;
21000;SDS011;10658;50.920;12.238;2024-03-02T08:08:37;25.92;;;15.43;;
21000;SDS011;10658;50.920;12.238;2024-03-02T08:12:38;25.33;;;13.63;;
21000;SDS011;10658;50.920;12.238;2024-03-02T08:16:39;23.83;;;14.50;;
21000;SDS011;10658;50.920;12.238;2024-03-02T08:20:41;25.50;;;13.32;;
21000;SDS011;10658;50.920;12.238;2024-03-02T08:24:42;28.13;;;12.95;;
21000;SDS011;10658;50.920;12.238;2024-03-02T08:28:43;24.13;;;14.43;;
21000;SDS011;10658;50.920;12.238;2024-03-02T08:32:44;22.55;;;11.90;;
21000;SDS011;10658;50.920;12.238;2024-03-02T08:36:45;21.67;;;13.02;;
21000;SDS011;10658;50.920;12.238;2024-03-02T08:40:46;19.95;;;11.60;;
21000;SDS011;10658;50.920;12.238;2024-03-02T08:44:47;17.10;;;10.10;;
21000;SDS011;10658;50.920;12.238;2024-03-02T08:48:48;16.80;;;9.68;;
21000;SDS011;10658;50.920;12.238;2024-03-02T08:52:49;14.55;;;9.45;;
21000;SDS011;10658;50.920;12.238;2024-03-02T08:56:50;14.98;;;9.40;;
21000;SDS011;10658;50.920;12.238;2024-03-02T09:00:51;18.00;;;10.18;;
21000;SDS011;10658;50.920;12.238;2024-03-02T09:04:52;18.73;;;9.93;;
21000;SDS011;10658;50.920;12.238;2024-03-02T09:08:53;17.13;;;9.20;;
21000;SDS011;10658;50.920;12.238;2024-03-02T09:12:54;20.10;;;10.43;;
21000;SDS011;10658;50.920;12.238;2024-03-02T09:16:55;19.63;;;10.38;;
21000;SDS011;10658;50.920;12.238;2024-03-02T09:20:56;15.88;;;9.15;;
21000;SDS011;10658;50.920;12.238;2024-03-02T09:24:56;15.90;;;9.65;;
21000;SDS011;10658;50.920;12.238;2024-03-02T09:28:58;18.05;;;9.93;;
21000;SDS011;10658;50.920;12.238;2024-03-02T09:32:59;14.82;;;9.85;;
21000;SDS011;10658;50.920;12.238;2024-03-02T09:37:00;14.88;;;9.60;;
21000;SDS011;10658;50.920;12.238;2024-03-02T09:41:04;17.10;;;10.68;;
21000;SDS011;10658;50.920;12.238;2024-03-02T09:45:05;17.67;;;9.52;;
21000;SDS011;10658;50.920;12.238;2024-03-02T09:49:06;15.05;;;10.10;;
21000;SDS011;10658;50.920;12.238;2024-03-02T09:53:08;12.35;;;8.70;;
21000;SDS011;10658;50.920;12.238;2024-03-02T09:57:10;17.10;;;9.20;;
21000;SDS011;10658;50.920;12.238;2024-03-02T10:01:10;13.82;;;8.48;;
21000;SDS011;10658;50.920;12.238;2024-03-02T10:05:11;14.70;;;8.50;;
21000;SDS011;10658;50.920;12.238;2024-03-02T10:09:13;13.07;;;8.93;;
21000;SDS011;10658;50.920;12.238;2024-03-02T10:13:28;13.05;;;8.45;;
21000;SDS011;10658;50.920;12.238;2024-03-02T10:17:30;15.30;;;8.55;;
21000;SDS011;10658;50.920;12.238;2024-03-02T10:21:31;14.32;;;8.45;;
21000;SDS011;10658;50.920;12.238;2024-03-02T10:25:32;15.38;;;8.73;;
21000;SDS011;10658;50.920;12.238;2024-03-02T10:29:37;11.85;;;7.30;;
21000;SDS011;10658;50.920;12.238;2024-03-02T10:33:39;15.95;;;8.95;;
21000;SDS011;10658;50.920;12.238;2024-03-02T10:37:40;15.52;;;9.07;;
21000;SDS011;10658;50.920;12.238;2024-03-02T10:41:42;19.30;;;10.65;;
21000;SDS011;10658;50.920;12.238;2024-03-02T10:45:46;17.92;;;9.38;;
21000;SDS011;10658;50.920;12.238;2024-03-02T10:49:50;16.88;;;8.90;;
21000;SDS011;10658;50.920;12.238;2024-03-02T10:53:52;13.88;;;8.90;;
21000;SDS011;10658;50.920;12.238;2024-03-02T10:57:54;14.98;;;7.32;;
21000;SDS011;10658;50.920;12.238;2024-03-02T11:01:57;12.75;;;7.15;;
21000;SDS011;10658;50.920;12.238;2024-03-02T11:05:59;13.23;;;7.22;;
21000;SDS011;10658;50.920;12.238;2024-03-02T11:10:02;12.55;;;7.00;;
21000;SDS011;10658;50.920;12.238;2024-03-02T11:14:13;11.43;;;7.05;;
21000;SDS011;10658;50.920;12.238;2024-03-02T11:18:16;10.23;;;6.35;;
21000;SDS011;10658;50.920;12.238;2024-03-02T11:22:19;9.38;;;5.25;;
21000;SDS011;10658;50.920;12.238;2024-03-02T11:26:21;12.55;;;6.07;;
21000;SDS011;10658;50.920;12.238;2024-03-02T11:34:34;14.32;;;7.68;;
21000;SDS011;10658;50.920;12.238;2024-03-02T11:38:35;19.48;;;9.40;;
21000;SDS011;10658;50.920;12.238;2024-03-02T11:42:36;10.43;;;6.47;;
21000;SDS011;10658;50.920;12.238;2024-03-02T11:46:41;13.95;;;9.43;;
21000;SDS011;10658;50.920;12.238;2024-03-02T11:50:42;13.13;;;7.60;;
21000;SDS011;10658;50.920;12.238;2024-03-02T11:54:47;10.65;;;6.45;;
21000;SDS011;10658;50.920;12.238;2024-03-02T11:58:49;10.60;;;7.20;;
21000;SDS011;10658;50.920;12.238;2024-03-02T12:03:05;13.23;;;7.60;;
21000;SDS011;10658;50.920;12.238;2024-03-02T12:07:12;12.43;;;7.05;;
21000;SDS011;10658;50.920;12.238;2024-03-02T12:11:19;12.13;;;6.35;;
21000;SDS011;10658;50.920;12.238;2024-03-02T12:15:31;10.73;;;6.85;;
21000;SDS011;10658;50.920;12.238;2024-03-02T12:19:33;9.48;;;6.40;;
21000;SDS011;10658;50.920;12.238;2024-03-02T12:23:34;13.18;;;9.13;;
21000;SDS011;10658;50.920;12.238;2024-03-02T12:27:37;11.82;;;7.28;;
21000;SDS011;10658;50.920;12.238;2024-03-02T12:31:39;13.15;;;8.38;;
21000;SDS011;10658;50.920;12.238;2024-03-02T12:35:40;8.88;;;6.25;;
21000;SDS011;10658;50.920;12.238;2024-03-02T12:39:44;8.82;;;6.40;;
21000;SDS011;10658;50.920;12.238;2024-03-02T12:43:46;8.95;;;6.10;;
21000;SDS011;10658;50.920;12.238;2024-03-02T12:47:47;9.77;;;5.85;;
21000;SDS011;10658;50.920;12.238;2024-03-02T12:51:48;8.63;;;5.70;;
21000;SDS011;10658;50.920;12.238;2024-03-02T12:55:52;10.90;;;5.95;;
21000;SDS011;10658;50.920;12.238;2024-03-02T13:00:06;7.28;;;5.30;;
21000;SDS011;10658;50.920;12.238;2024-03-02T13:04:09;9.25;;;5.68;;
21000;SDS011;10658;50.920;12.238;2024-03-02T13:08:09;7.47;;;5.28;;
21000;SDS011;10658;50.920;12.238;2024-03-02T13:12:11;9.93;;;5.80;;
21000;SDS011;10658;50.920;12.238;2024-03-02T13:16:12;8.85;;;5.47;;
21000;SDS011;10658;50.920;12.238;2024-03-02T13:20:13;7.93;;;5.22;;
21000;SDS011;10658;50.920;12.238;2024-03-02T13:24:15;9.35;;;5.72;;
21000;SDS011;10658;50.920;12.238;2024-03-02T13:28:15;6.82;;;4.85;;
21000;SDS011;10658;50.920;12.238;2024-03-02T13:32:17;10.52;;;4.85;;
21000;SDS011;10658;50.920;12.238;2024-03-02T13:36:23;8.70;;;5.43;;
21000;SDS011;10658;50.920;12.238;2024-03-02T13:40:24;7.93;;;5.53;;
21000;SDS011;10658;50.920;12.238;2024-03-02T13:44:25;9.52;;;5.63;;
21000;SDS011;10658;50.920;12.238;2024-03-02T13:48:26;8.63;;;4.65;;
21000;SDS011;10658;50.920;12.238;2024-03-02T13:52:27;7.38;;;4.82;;
21000;SDS011;10658;50.920;12.238;2024-03-02T13:56:28;9.82;;;5.57;;
21000;SDS011;10658;50.920;12.238;2024-03-02T14:00:29;7.10;;;4.70;;
21000;SDS011;10658;50.920;12.238;2024-03-02T14:04:33;6.47;;;4.60;;
21000;SDS011;10658;50.920;12.238;2024-03-02T14:08:35;9.05;;;4.80;;
21000;SDS011;10658;50.920;12.238;2024-03-02T14:12:36;8.85;;;5.38;;
21000;SDS011;10658;50.920;12.238;2024-03-02T14:16:37;7.60;;;4.10;;
21000;SDS011;10658;50.920;12.238;2024-03-02T14:20:39;6.07;;;3.72;;
21000;SDS011;10658;50.920;12.238;2024-03-02T14:24:42;7.25;;;4.20;;
21000;SDS011;10658;50.920;12.238;2024-03-02T14:28:43;7.57;;;4.60;;
21000;SDS011;10658;50.920;12.238;2024-03-02T14:32:44;5.90;;;3.75;;
21000;SDS011;10658;50.920;12.238;2024-03-02T14:36:44;8.60;;;4.35;;
21000;SDS011;10658;50.920;12.238;2024-03-02T14:40:45;6.78;;;4.10;;
21000;SDS011;10658;50.920;12.238;2024-03-02T14:44:46;8.30;;;4.22;;
21000;SDS011;10658;50.920;12.238;2024-03-02T14:48:47;7.00;;;4.10;;
21000;SDS011;10658;50.920;12.238;2024-03-02T14:52:48;8.45;;;4.10;;
21000;SDS011;10658;50.920;12.238;2024-03-02T14:56:48;7.00;;;3.65;;
21000;SDS011;10658;50.920;12.238;2024-03-02T15:00:51;5.20;;;3.85;;
21000;SDS011;10658;50.920;12.238;2024-03-02T15:04:52;4.65;;;3.75;;
21000;SDS011;10658;50.920;12.238;2024-03-02T15:08:52;6.28;;;3.90;;
21000;SDS011;10658;50.920;12.238;2024-03-02T15:12:57;4.90;;;3.03;;
21000;SDS011;10658;50.920;12.238;2024-03-02T15:16:58;5.43;;;3.10;;
21000;SDS011;10658;50.920;12.238;2024-03-02T15:20:59;4.40;;;2.92;;
21000;SDS011;10658;50.920;12.238;2024-03-02T15:25:00;6.18;;;3.28;;
21000;SDS011;10658;50.920;12.238;2024-03-02T15:29:01;5.32;;;3.70;;
21000;SDS011;10658;50.920;12.238;2024-03-02T15:33:01;6.13;;;2.67;;
21000;SDS011;10658;50.920;12.238;2024-03-02T15:37:03;4.03;;;3.28;;
21000;SDS011;10658;50.920;12.238;2024-03-02T15:41:04;10.95;;;3.63;;
21000;SDS011;10658;50.920;12.238;2024-03-02T15:45:05;10.27;;;3.85;;
21000;SDS011;10658;50.920;12.238;2024-03-02T15:49:07;7.40;;;3.85;;
21000;SDS011;10658;50.920;12.238;2024-03-02T15:53:08;8.13;;;4.15;;
21000;SDS011;10658;50.920;12.238;2024-03-02T15:57:10;7.88;;;4.00;;
21000;SDS011;10658;50.920;12.238;2024-03-02T16:01:11;7.35;;;4.68;;
21000;SDS011;10658;50.920;12.238;2024-03-02T16:05:12;5.68;;;4.32;;
21000;SDS011;10658;50.920;12.238;2024-03-02T16:09:13;10.40;;;5.35;;
21000;SDS011;10658;50.920;12.238;2024-03-02T16:13:14;9.63;;;5.30;;
21000;SDS011;10658;50.920;12.238;2024-03-02T16:17:15;6.85;;;5.20;;
21000;SDS011;10658;50.920;12.238;2024-03-02T16:21:15;10.13;;;5.57;;
21000;SDS011;10658;50.920;12.238;2024-03-02T16:25:17;8.43;;;5.00;;
21000;SDS011;10658;50.920;12.238;2024-03-02T16:29:18;6.90;;;4.85;;
21000;SDS011;10658;50.920;12.238;2024-03-02T16:33:19;8.25;;;5.00;;
21000;SDS011;10658;50.920;12.238;2024-03-02T16:37:20;9.55;;;5.18;;
21000;SDS011;10658;50.920;12.238;2024-03-02T16:41:21;11.20;;;5.20;;
21000;SDS011;10658;50.920;12.238;2024-03-02T16:45:22;10.60;;;4.93;;
21000;SDS011;10658;50.920;12.238;2024-03-02T16:49:23;11.60;;;5.38;;
21000;SDS011;10658;50.920;12.238;2024-03-02T16:53:23;11.93;;;4.97;;
21000;SDS011;10658;50.920;12.238;2024-03-02T16:57:24;8.85;;;4.78;;
21000;SDS011;10658;50.920;12.238;2024-03-02T17:01:25;11.63;;;5.78;;
21000;SDS011;10658;50.920;12.238;2024-03-02T17:05:27;10.52;;;5.63;;
21000;SDS011;10658;50.920;12.238;2024-03-02T17:09:28;11.80;;;6.22;;
21000;SDS011;10658;50.920;12.238;2024-03-02T17:13:29;11.88;;;6.38;;
21000;SDS011;10658;50.920;12.238;2024-03-02T17:17:30;11.88;;;6.78;;
21000;SDS011;10658;50.920;12.238;2024-03-02T17:21:31;13.40;;;6.38;;
21000;SDS011;10658;50.920;12.238;2024-03-02T17:25:32;9.23;;;5.93;;
21000;SDS011;10658;50.920;12.238;2024-03-02T17:29:34;14.32;;;7.93;;
21000;SDS011;10658;50.920;12.238;2024-03-02T17:33:34;12.32;;;6.93;;
21000;SDS011;10658;50.920;12.238;2024-03-02T17:37:35;16.42;;;8.27;;
21000;SDS011;10658;50.920;12.238;2024-03-02T17:41:38;13.15;;;8.10;;
21000;SDS011;10658;50.920;12.238;2024-03-02T17:45:39;14.25;;;8.50;;
21000;SDS011;10658;50.920;12.238;2024-03-02T17:49:40;18.77;;;9.05;;
21000;SDS011;10658;50.920;12.238;2024-03-02T17:53:41;16.95;;;9.43;;
21000;SDS011;10658;50.920;12.238;2024-03-02T17:57:42;16.98;;;9.07;;
21000;SDS011;10658;50.920;12.238;2024-03-02T18:01:42;20.38;;;10.65;;
21000;SDS011;10658;50.920;12.238;2024-03-02T18:05:43;22.13;;;10.85;;
21000;SDS011;10658;50.920;12.238;2024-03-02T18:09:44;16.20;;;10.27;;
21000;SDS011;10658;50.920;12.238;2024-03-02T18:13:45;19.33;;;9.68;;
21000;SDS011;10658;50.920;12.238;2024-03-02T18:17:46;15.85;;;8.85;;
21000;SDS011;10658;50.920;12.238;2024-03-02T18:21:47;12.77;;;8.18;;
21000;SDS011;10658;50.920;12.238;2024-03-02T18:25:47;12.68;;;7.88;;
21000;SDS011;10658;50.920;12.238;2024-03-02T18:29:48;13.32;;;7.72;;
21000;SDS011;10658;50.920;12.238;2024-03-02T18:33:49;14.10;;;8.15;;
21000;SDS011;10658;50.920;12.238;2024-03-02T18:37:50;13.77;;;8.50;;
21000;SDS011;10658;50.920;12.238;2024-03-02T18:41:51;13.43;;;8.10;;
21000;SDS011;10658;50.920;12.238;2024-03-02T18:45:52;16.60;;;8.80;;
21000;SDS011;10658;50.920;12.238;2024-03-02T18:49:55;14.07;;;8.50;;
21000;SDS011;10658;50.920;12.238;2024-03-02T18:53:57;20.70;;;10.38;;
21000;SDS011;10658;50.920;12.238;2024-03-02T18:57:58;15.65;;;9.32;;
21000;SDS011;10658;50.920;12.238;2024-03-02T19:01:59;18.00;;;9.43;;
21000;SDS011;10658;50.920;12.238;2024-03-02T19:06:00;15.05;;;8.07;;
21000;SDS011;10658;50.920;12.238;2024-03-02T19:10:01;12.32;;;7.47;;
21000;SDS011;10658;50.920;12.238;2024-03-02T19:14:04;12.68;;;7.88;;
21000;SDS011;10658;50.920;12.238;2024-03-02T19:18:05;15.10;;;7.57;;
21000;SDS011;10658;50.920;12.238;2024-03-02T19:22:06;12.40;;;7.40;;
21000;SDS011;10658;50.920;12.238;2024-03-02T19:26:07;10.48;;;7.38;;
21000;SDS011;10658;50.920;12.238;2024-03-02T19:30:09;19.10;;;10.63;;
21000;SDS011;10658;50.920;12.238;2024-03-02T19:34:11;14.52;;;8.02;;
21000;SDS011;10658;50.920;12.238;2024-03-02T19:38:11;14.27;;;7.93;;
21000;SDS011;10658;50.920;12.238;2024-03-02T19:42:13;19.40;;;11.02;;
21000;SDS011;10658;50.920;12.238;2024-03-02T19:46:14;20.85;;;13.10;;
21000;SDS011;10658;50.920;12.238;2024-03-02T19:50:15;15.55;;;11.00;;
21000;SDS011;10658;50.920;12.238;2024-03-02T19:54:17;20.45;;;11.07;;
21000;SDS011;10658;50.920;12.238;2024-03-02T19:58:18;13.82;;;8.88;;
21000;SDS011;10658;50.920;12.238;2024-03-02T20:02:19;13.82;;;9.32;;
21000;SDS011;10658;50.920;12.238;2024-03-02T20:06:22;12.40;;;7.57;;
21000;SDS011;10658;50.920;12.238;2024-03-02T20:10:23;10.63;;;7.95;;
21000;SDS011;10658;50.920;12.238;2024-03-02T20:14:23;13.63;;;7.93;;
21000;SDS011;10658;50.920;12.238;2024-03-02T20:18:24;10.82;;;7.00;;
21000;SDS011;10658;50.920;12.238;2024-03-02T20:22:26;12.63;;;8.07;;
21000;SDS011;10658;50.920;12.238;2024-03-02T20:26:31;10.88;;;6.10;;
21000;SDS011;10658;50.920;12.238;2024-03-02T20:30:32;10.93;;;6.53;;
21000;SDS011;10658;50.920;12.238;2024-03-02T20:34:33;11.93;;;6.00;;
21000;SDS011;10658;50.920;12.238;2024-03-02T20:38:33;9.38;;;6.03;;
21000;SDS011;10658;50.920;12.238;2024-03-02T20:42:34;11.80;;;7.45;;
21000;SDS011;10658;50.920;12.238;2024-03-02T20:46:35;15.50;;;7.68;;
21000;SDS011;10658;50.920;12.238;2024-03-02T20:50:36;13.38;;;8.52;;
21000;SDS011;10658;50.920;12.238;2024-03-02T20:54:37;11.88;;;7.40;;
21000;SDS011;10658;50.920;12.238;2024-03-02T20:58:39;10.02;;;6.40;;
21000;SDS011;10658;50.920;12.238;2024-03-02T21:02:44;8.70;;;6.80;;
21000;SDS011;10658;50.920;12.238;2024-03-02T21:06:45;10.18;;;7.38;;
21000;SDS011;10658;50.920;12.238;2024-03-02T21:10:46;10.68;;;6.78;;
21000;SDS011;10658;50.920;12.238;2024-03-02T21:14:47;7.60;;;4.72;;
21000;SDS011;10658;50.920;12.238;2024-03-02T21:18:48;11.55;;;7.18;;
21000;SDS011;10658;50.920;12.238;2024-03-02T21:22:50;11.85;;;7.47;;
21000;SDS011;10658;50.920;12.238;2024-03-02T21:26:51;10.13;;;6.05;;
21000;SDS011;10658;50.920;12.238;2024-03-02T21:30:52;10.13;;;6.00;;
21000;SDS011;10658;50.920;12.238;2024-03-02T21:34:53;9.02;;;6.32;;
21000;SDS011;10658;50.920;12.238;2024-03-02T21:38:54;7.05;;;5.53;;
21000;SDS011;10658;50.920;12.238;2024-03-02T21:42:55;8.15;;;5.28;;
21000;SDS011;10658;50.920;12.238;2024-03-02T21:46:57;8.38;;;5.32;;
21000;SDS011;10658;50.920;12.238;2024-03-02T21:50:57;9.80;;;5.38;;
21000;SDS011;10658;50.920;12.238;2024-03-02T21:54:58;10.10;;;6.30;;
21000;SDS011;10658;50.920;12.238;2024-03-02T21:58:59;9.95;;;6.65;;
21000;SDS011;10658;50.920;12.238;2024-03-02T22:03:00;7.57;;;5.35;;
21000;SDS011;10658;50.920;12.238;2024-03-02T22:07:01;10.18;;;6.80;;
21000;SDS011;10658;50.920;12.238;2024-03-02T22:11:02;8.57;;;6.05;;
21000;SDS011;10658;50.920;12.238;2024-03-02T22:15:03;8.85;;;5.60;;
21000;SDS011;10658;50.920;12.238;2024-03-02T22:19:04;8.18;;;5.22;;
21000;SDS011;10658;50.920;12.238;2024-03-02T22:23:05;6.10;;;4.78;;
21000;SDS011;10658;50.920;12.238;2024-03-02T22:27:06;9.57;;;6.10;;
21000;SDS011;10658;50.920;12.238;2024-03-02T22:31:07;8.75;;;5.55;;
21000;SDS011;10658;50.920;12.238;2024-03-02T22:35:08;7.20;;;4.53;;
21000;SDS011;10658;50.920;12.238;2024-03-02T22:39:08;9.18;;;6.20;;
21000;SDS011;10658;50.920;12.238;2024-03-02T22:43:09;10.93;;;6.88;;
21000;SDS011;10658;50.920;12.238;2024-03-02T22:47:10;9.10;;;5.25;;
21000;SDS011;10658;50.920;12.238;2024-03-02T22:51:24;9.35;;;5.80;;
21000;SDS011;10658;50.920;12.238;2024-03-02T22:55:26;9.70;;;5.35;;
21000;SDS011;10658;50.920;12.238;2024-03-02T22:59:28;11.65;;;6.70;;
21000;SDS011;10658;50.920;12.238;2024-03-02T23:03:28;8.23;;;5.75;;
21000;SDS011;10658;50.920;12.238;2024-03-02T23:07:29;9.55;;;5.78;;
21000;SDS011;10658;50.920;12.238;2024-03-02T23:11:30;10.52;;;6.80;;
21000;SDS011;10658;50.920;12.238;2024-03-02T23:15:31;13.80;;;7.03;;
21000;SDS011;10658;50.920;12.238;2024-03-02T23:19:32;11.40;;;6.90;;
21000;SDS011;10658;50.920;12.238;2024-03-02T23:23:33;8.48;;;5.53;;
21000;SDS011;10658;50.920;12.238;2024-03-02T23:27:34;10.18;;;6.30;;
21000;SDS011;10658;50.920;12.238;2024-03-02T23:31:35;8.85;;;5.85;;
21000;SDS011;10658;50.920;12.238;2024-03-02T23:35:35;12.60;;;6.68;;
21000;SDS011;10658;50.920;12.238;2024-03-02T23:39:36;8.77;;;6.18;;